createdAt,value
2022-08-17T00:00:34.531Z,27.65
2022-08-17T00:03:10.317Z,27.59
2022-08-17T00:05:45.897Z,27.59
2022-08-17T00:08:15.973Z,27.59
2022-08-17T00:10:45.595Z,27.58
2022-08-17T00:13:17.768Z,27.58
2022-08-17T00:15:46.685Z,27.60
2022-08-17T00:19:06.754Z,27.58
2022-08-17T00:21:10.513Z,27.52
2022-08-17T00:23:44.506Z,27.50
2022-08-17T00:26:44.447Z,27.47
2022-08-17T00:29:05.771Z,27.41
2022-08-17T00:31:34.271Z,27.35
2022-08-17T00:34:02.154Z,27.27
2022-08-17T00:36:31.015Z,27.19
2022-08-17T00:38:58.388Z,27.15
2022-08-17T00:41:28.093Z,27.15
2022-08-17T00:43:58.779Z,27.14
2022-08-17T00:46:30.870Z,27.13
2022-08-17T00:48:58.718Z,27.15
2022-08-17T00:51:37.761Z,27.14
2022-08-17T00:54:14.993Z,27.17
2022-08-17T00:56:49.864Z,27.19
2022-08-17T00:59:22.474Z,27.22
2022-08-17T01:01:52.431Z,27.24
2022-08-17T01:04:22.631Z,27.24
2022-08-17T01:06:52.839Z,27.24
2022-08-17T01:09:21.465Z,27.24
2022-08-17T01:11:52.141Z,27.24
2022-08-17T01:14:21.157Z,27.25
2022-08-17T01:16:50.679Z,27.23
2022-08-17T01:19:23.725Z,27.21
2022-08-17T01:22:01.434Z,27.19
2022-08-17T01:24:31.091Z,27.21
2022-08-17T01:27:01.780Z,27.17
2022-08-17T01:29:31.765Z,27.14
2022-08-17T01:32:06.491Z,27.11
2022-08-17T01:34:42.460Z,27.08
2022-08-17T01:37:13.160Z,26.98
2022-08-17T01:39:48.614Z,26.85
2022-08-17T01:42:23.725Z,26.76
2022-08-17T01:44:56.759Z,26.69
2022-08-17T01:47:24.264Z,26.68
2022-08-17T01:49:51.575Z,26.68
2022-08-17T01:52:19.596Z,26.71
2022-08-17T01:54:50.737Z,26.73
2022-08-17T01:57:18.715Z,26.74
2022-08-17T01:59:46.113Z,26.74
2022-08-17T02:02:30.253Z,26.75
2022-08-17T02:04:59.729Z,26.75
2022-08-17T02:07:27.252Z,26.74
2022-08-17T02:09:56.608Z,26.71
2022-08-17T02:12:38.557Z,26.65
2022-08-17T02:15:09.792Z,26.62
2022-08-17T02:17:37.195Z,26.62
2022-08-17T02:20:07.371Z,26.63
2022-08-17T02:22:36.375Z,26.62
2022-08-17T02:25:09.641Z,26.59
2022-08-17T02:27:38.727Z,26.56
2022-08-17T02:31:01.725Z,26.51
2022-08-17T02:33:04.193Z,26.46
2022-08-17T02:35:33.727Z,26.42
2022-08-17T02:38:01.749Z,26.40
2022-08-17T02:40:36.098Z,26.41
2022-08-17T02:43:05.186Z,26.41
2022-08-17T02:45:32.858Z,26.42
2022-08-17T02:48:00.309Z,26.41
2022-08-17T02:50:27.880Z,26.42
2022-08-17T02:53:01.889Z,26.44
2022-08-17T02:55:36.508Z,26.43
2022-08-17T02:58:04.277Z,26.39
2022-08-17T03:00:35.320Z,26.35
2022-08-17T03:03:05.495Z,26.32
2022-08-17T03:05:36.681Z,26.24
2022-08-17T03:08:06.530Z,26.18
2022-08-17T03:10:38.447Z,26.11
2022-08-17T03:13:05.818Z,26.05
2022-08-17T03:15:35.419Z,26.01
2022-08-17T03:18:03.792Z,25.99
2022-08-17T03:20:34.057Z,25.99
2022-08-17T03:23:01.810Z,25.98
2022-08-17T03:25:35.366Z,25.99
2022-08-17T03:28:03.607Z,26.02
2022-08-17T03:30:31.108Z,26.05
2022-08-17T03:33:01.878Z,26.06
2022-08-17T03:35:33.501Z,26.09
2022-08-17T03:38:01.441Z,26.15
2022-08-17T03:40:34.573Z,26.20
2022-08-17T03:43:21.920Z,26.20
2022-08-17T03:46:28.508Z,26.19
2022-08-17T03:49:15.612Z,26.11
2022-08-17T03:52:01.512Z,26.09
2022-08-17T03:54:47.608Z,26.07
2022-08-17T03:57:15.524Z,26.06
2022-08-17T03:59:45.144Z,26.08
2022-08-17T04:02:17.593Z,26.07
2022-08-17T04:04:45.419Z,26.08
2022-08-17T04:07:12.872Z,26.09
2022-08-17T04:09:42.928Z,26.10
2022-08-17T04:12:15.181Z,26.10
2022-08-17T04:14:53.401Z,26.11
2022-08-17T04:17:24.450Z,26.12
2022-08-17T04:19:53.163Z,26.13
2022-08-17T04:22:30.823Z,26.14
2022-08-17T04:25:07.571Z,26.15
2022-08-17T04:27:35.336Z,26.15
2022-08-17T04:30:07.359Z,26.13
2022-08-17T04:33:04.552Z,26.08
2022-08-17T04:35:39.986Z,26.11
2022-08-17T04:38:10.179Z,26.12
2022-08-17T04:40:56.499Z,26.16
2022-08-17T04:43:29.915Z,26.15
2022-08-17T04:46:01.635Z,26.13
2022-08-17T04:48:36.959Z,26.17
2022-08-17T04:51:10.523Z,26.12
2022-08-17T04:53:40.149Z,26.12
2022-08-17T04:56:16.197Z,26.13
2022-08-17T04:58:49.975Z,26.12
2022-08-17T05:01:23.849Z,26.15
2022-08-17T05:03:53.605Z,26.15
2022-08-17T05:06:21.823Z,26.13
2022-08-17T05:08:49.570Z,26.10
2022-08-17T05:11:17.318Z,26.13
2022-08-17T05:13:44.938Z,26.17
2022-08-17T05:16:12.587Z,26.24
2022-08-17T05:18:41.823Z,26.30
2022-08-17T05:21:09.442Z,26.32
2022-08-17T05:23:42.355Z,26.36
2022-08-17T05:26:23.129Z,26.39
2022-08-17T05:28:59.796Z,26.40
2022-08-17T05:31:31.157Z,26.44
2022-08-17T05:34:00.144Z,26.49
2022-08-17T05:36:42.633Z,26.56
2022-08-17T05:39:16.905Z,26.63
2022-08-17T05:41:47.835Z,26.65
2022-08-17T05:44:16.397Z,26.68
2022-08-17T05:46:50.502Z,26.68
2022-08-17T05:49:27.501Z,26.68
2022-08-17T05:52:26.743Z,26.63
2022-08-17T05:55:13.102Z,26.67
2022-08-17T05:57:56.343Z,26.69
2022-08-17T06:00:30.639Z,26.76
2022-08-17T06:03:22.348Z,26.76
2022-08-17T06:06:06.013Z,26.81
2022-08-17T06:08:48.095Z,26.86
2022-08-17T06:11:31.482Z,26.92
2022-08-17T06:14:26.517Z,26.97
2022-08-17T06:17:00.710Z,27.06
2022-08-17T06:19:38.709Z,27.11
2022-08-17T06:22:12.515Z,27.15
2022-08-17T06:24:47.108Z,27.18
2022-08-17T06:27:26.139Z,27.15
2022-08-17T06:30:08.113Z,27.17
2022-08-17T06:32:38.222Z,27.21
2022-08-17T06:35:11.770Z,27.27
2022-08-17T06:38:04.079Z,27.27
2022-08-17T06:41:01.710Z,27.31
2022-08-17T06:43:49.438Z,27.35
2022-08-17T06:46:28.085Z,27.40
2022-08-17T06:49:13.902Z,27.48
2022-08-17T06:51:48.909Z,27.64
2022-08-17T06:54:27.558Z,27.78
2022-08-17T06:57:05.222Z,27.91
2022-08-17T06:59:55.175Z,28.04
2022-08-17T07:02:52.703Z,28.15
2022-08-17T07:05:25.549Z,28.25
2022-08-17T07:08:02.872Z,28.24
2022-08-17T07:10:41.026Z,28.27
2022-08-17T07:13:41.921Z,28.28
2022-08-17T07:16:36.360Z,28.34
2022-08-17T07:19:07.331Z,28.43
2022-08-17T07:21:52.280Z,28.47
2022-08-17T07:24:33.218Z,28.52
2022-08-17T07:27:11.433Z,28.57
2022-08-17T07:29:46.383Z,28.63
2022-08-17T07:32:19.001Z,28.70
2022-08-17T07:35:15.130Z,28.75
2022-08-17T07:37:48.656Z,28.89
2022-08-17T07:40:30.770Z,29.02
2022-08-17T07:43:26.097Z,29.27
2022-08-17T07:46:37.845Z,29.61
2022-08-17T07:49:33.996Z,29.99
2022-08-17T07:52:47.550Z,30.36
2022-08-17T07:54:54.604Z,30.70
2022-08-17T07:57:35.291Z,30.95
2022-08-17T08:00:29.160Z,31.23
2022-08-17T08:03:21.723Z,31.64
2022-08-17T08:05:55.961Z,32.19
2022-08-17T08:08:43.735Z,32.97
2022-08-17T08:11:15.684Z,33.71
2022-08-17T08:13:45.643Z,34.37
2022-08-17T08:16:24.561Z,35.28
2022-08-17T08:18:57.825Z,36.19
2022-08-17T08:21:51.395Z,36.90
2022-08-17T08:24:51.436Z,37.67
2022-08-17T08:27:37.426Z,38.50
2022-08-17T08:30:12.235Z,39.15
2022-08-17T08:33:10.904Z,39.47
2022-08-17T08:35:52.472Z,39.67
2022-08-17T08:38:34.466Z,39.61
2022-08-17T08:41:21.539Z,39.47
2022-08-17T08:44:08.174Z,39.59
2022-08-17T08:46:49.370Z,39.88
2022-08-17T08:50:05.815Z,40.21
2022-08-17T08:53:01.315Z,40.91
2022-08-17T08:55:47.459Z,41.51
2022-08-17T08:58:32.165Z,42.14
2022-08-17T09:01:20.842Z,43.06
2022-08-17T09:04:24.742Z,43.80
2022-08-17T09:07:09.951Z,44.21
2022-08-17T09:09:59.270Z,44.36
2022-08-17T09:12:41.800Z,44.67
2022-08-17T09:15:18.399Z,45.05
2022-08-17T09:18:21.410Z,44.94
2022-08-17T09:20:55.045Z,44.39
2022-08-17T09:23:34.239Z,44.02
2022-08-17T09:26:11.595Z,43.67
2022-08-17T09:28:48.214Z,43.28
2022-08-17T09:31:23.931Z,43.08
2022-08-17T09:33:51.633Z,43.17
2022-08-17T09:36:26.964Z,43.80
2022-08-17T09:39:03.402Z,44.83
2022-08-17T09:41:48.959Z,45.40
2022-08-17T09:44:29.552Z,45.50
2022-08-17T09:47:06.002Z,45.24
2022-08-17T09:49:40.716Z,45.04
2022-08-17T09:52:18.997Z,44.93
2022-08-17T09:54:53.423Z,45.08
2022-08-17T09:57:47.529Z,45.42
2022-08-17T10:00:23.729Z,45.98
2022-08-17T10:03:32.386Z,46.60
2022-08-17T10:06:13.121Z,46.32
2022-08-17T10:08:52.617Z,45.59
2022-08-17T10:11:54.313Z,45.12
2022-08-17T10:14:38.094Z,44.87
2022-08-17T10:17:25.704Z,44.94
2022-08-17T10:20:06.766Z,45.14
2022-08-17T10:23:01.972Z,45.08
2022-08-17T10:25:55.043Z,44.60
2022-08-17T10:28:31.525Z,43.73
2022-08-17T10:31:33.250Z,42.97
2022-08-17T10:34:18.987Z,42.62
2022-08-17T10:37:00.209Z,42.72
2022-08-17T10:39:52.589Z,42.51
2022-08-17T10:42:32.982Z,42.31
2022-08-17T10:45:15.469Z,42.07
2022-08-17T10:48:05.879Z,41.64
2022-08-17T10:50:58.842Z,41.18
2022-08-17T10:53:55.948Z,40.37
2022-08-17T10:56:40.543Z,39.88
2022-08-17T10:59:08.098Z,39.52
2022-08-17T11:02:12.438Z,39.07
2022-08-17T11:05:01.438Z,38.63
2022-08-17T11:07:52.165Z,38.20
2022-08-17T11:11:14.594Z,38.03
2022-08-17T11:14:00.476Z,37.88
2022-08-17T11:16:50.212Z,37.59
2022-08-17T11:20:01.763Z,37.44
2022-08-17T11:23:32.576Z,37.30
2022-08-17T11:26:17.601Z,37.32
2022-08-17T11:28:52.831Z,37.07
2022-08-17T11:31:39.907Z,36.82
2022-08-17T11:34:19.304Z,36.83
2022-08-17T11:37:26.399Z,36.79
2022-08-17T11:40:28.007Z,36.81
2022-08-17T11:43:28.799Z,36.81
2022-08-17T11:46:23.057Z,36.63
2022-08-17T11:49:27.044Z,36.55
2022-08-17T11:52:14.987Z,36.46
2022-08-17T11:54:47.539Z,36.53
2022-08-17T11:58:01.509Z,36.45
2022-08-17T12:00:51.944Z,36.50
2022-08-17T12:03:26.390Z,36.61
2022-08-17T12:06:05.804Z,36.53
2022-08-17T12:08:41.737Z,36.41
2022-08-17T12:11:18.947Z,36.18
2022-08-17T12:14:11.618Z,36.15
2022-08-17T12:16:43.859Z,36.07
2022-08-17T12:19:21.631Z,36.06
2022-08-17T12:21:58.134Z,35.90
2022-08-17T12:24:48.752Z,35.72
2022-08-17T12:28:04.228Z,35.73
2022-08-17T12:30:21.863Z,35.67
2022-08-17T12:32:50.130Z,35.75
2022-08-17T12:35:28.096Z,35.87
2022-08-17T12:38:01.167Z,36.04
2022-08-17T12:40:31.674Z,36.15
2022-08-17T12:43:04.543Z,36.28
2022-08-17T12:45:36.459Z,36.33
2022-08-17T12:48:08.969Z,36.37
2022-08-17T12:50:39.507Z,36.46
2022-08-17T12:53:12.675Z,36.52
2022-08-17T12:55:40.510Z,36.55
2022-08-17T12:58:16.924Z,36.54
2022-08-17T13:00:51.320Z,36.55
2022-08-17T13:03:23.224Z,36.66
2022-08-17T13:06:01.129Z,36.77
2022-08-17T13:08:35.581Z,36.93
2022-08-17T13:11:09.316Z,37.10
2022-08-17T13:13:41.572Z,37.19
2022-08-17T13:16:19.088Z,37.29
2022-08-17T13:18:50.640Z,37.25
2022-08-17T13:21:27.425Z,37.15
2022-08-17T13:23:59.397Z,36.90
2022-08-17T13:26:33.091Z,36.63
2022-08-17T13:29:07.698Z,36.41
2022-08-17T13:31:52.559Z,36.26
2022-08-17T13:35:02.758Z,36.10
2022-08-17T13:37:32.840Z,36.10
2022-08-17T13:40:29.088Z,35.94
2022-08-17T13:42:57.448Z,35.96
2022-08-17T13:45:51.226Z,36.03
2022-08-17T13:48:29.638Z,36.12
2022-08-17T13:51:17.264Z,36.05
2022-08-17T13:53:57.768Z,36.02
2022-08-17T13:56:39.336Z,36.08
2022-08-17T13:59:12.520Z,36.15
2022-08-17T14:01:48.524Z,36.22
2022-08-17T14:04:23.707Z,36.30
2022-08-17T14:06:55.840Z,36.39
2022-08-17T14:09:30.502Z,36.44
2022-08-17T14:12:03.144Z,36.41
2022-08-17T14:14:31.163Z,36.34
2022-08-17T14:16:59.888Z,36.31
2022-08-17T14:19:27.271Z,36.34
2022-08-17T14:21:58.748Z,36.39
2022-08-17T14:24:29.849Z,36.43
2022-08-17T14:26:59.216Z,36.42
2022-08-17T14:29:31.162Z,36.44
2022-08-17T14:32:11.403Z,36.50
2022-08-17T14:34:38.873Z,36.59
2022-08-17T14:37:06.334Z,36.50
2022-08-17T14:39:33.785Z,36.39
2022-08-17T14:42:01.770Z,36.38
2022-08-17T14:44:29.599Z,36.41
2022-08-17T14:46:57.058Z,36.43
2022-08-17T14:49:26.068Z,36.39
2022-08-17T14:51:53.954Z,36.25
2022-08-17T14:54:33.086Z,36.14
2022-08-17T14:57:22.567Z,36.09
2022-08-17T14:59:54.726Z,36.12
2022-08-17T15:02:29.824Z,36.16
2022-08-17T15:05:06.060Z,36.19
2022-08-17T15:07:33.918Z,36.22
2022-08-17T15:10:02.109Z,36.18
2022-08-17T15:12:34.242Z,36.16
2022-08-17T15:15:04.903Z,36.07
2022-08-17T15:17:44.467Z,35.94
2022-08-17T15:20:29.121Z,35.75
2022-08-17T15:22:58.772Z,35.71
2022-08-17T15:25:30.376Z,35.61
2022-08-17T15:27:59.158Z,35.54
2022-08-17T15:30:27.642Z,35.53
2022-08-17T15:32:58.520Z,35.51
2022-08-17T15:35:31.406Z,35.50
2022-08-17T15:38:04.545Z,35.51
2022-08-17T15:40:36.580Z,35.52
2022-08-17T15:43:06.575Z,35.51
2022-08-17T15:45:34.342Z,35.49
2022-08-17T15:48:01.753Z,35.43
2022-08-17T15:50:30.986Z,35.42
2022-08-17T15:53:02.177Z,35.39
2022-08-17T15:55:32.410Z,35.28
2022-08-17T15:58:00.816Z,35.26
2022-08-17T16:00:29.522Z,35.26
2022-08-17T16:03:20.363Z,35.26
2022-08-17T16:05:50.150Z,35.22
2022-08-17T16:08:21.238Z,35.19
2022-08-17T16:10:52.214Z,35.13
2022-08-17T16:13:19.825Z,35.09
2022-08-17T16:15:56.972Z,35.06
2022-08-17T16:18:31.049Z,35.00
2022-08-17T16:21:23.676Z,34.94
2022-08-17T16:23:56.367Z,34.81
2022-08-17T16:26:24.488Z,34.72
2022-08-17T16:28:52.512Z,34.63
2022-08-17T16:31:20.155Z,34.57
2022-08-17T16:34:16.284Z,34.52
2022-08-17T16:36:38.339Z,34.45
2022-08-17T16:39:05.936Z,34.41
2022-08-17T16:41:45.606Z,34.36
2022-08-17T16:44:15.830Z,34.32
2022-08-17T16:46:45.643Z,34.26
2022-08-17T16:49:35.937Z,34.23
2022-08-17T16:52:07.843Z,34.23
2022-08-17T16:54:37.962Z,34.21
2022-08-17T16:57:05.701Z,34.22
2022-08-17T16:59:40.280Z,34.26
2022-08-17T17:02:12.463Z,34.29
2022-08-17T17:04:49.417Z,34.23
2022-08-17T17:07:56.203Z,34.08
2022-08-17T17:10:32.721Z,34.14
2022-08-17T17:13:03.718Z,34.06
2022-08-17T17:15:51.778Z,33.71
2022-08-17T17:18:30.411Z,33.55
2022-08-17T17:20:58.809Z,33.12
2022-08-17T17:23:41.178Z,32.83
2022-08-17T17:26:24.751Z,32.62
2022-08-17T17:29:14.971Z,32.49
2022-08-17T17:31:55.300Z,32.37
2022-08-17T17:34:29.520Z,32.28
2022-08-17T17:37:03.409Z,32.16
2022-08-17T17:39:41.549Z,32.08
2022-08-17T17:42:16.597Z,32.06
2022-08-17T17:44:54.451Z,32.01
2022-08-17T17:47:22.660Z,31.98
2022-08-17T17:49:50.100Z,31.95
2022-08-17T17:52:28.365Z,31.92
2022-08-17T17:55:16.242Z,31.85
2022-08-17T17:58:00.708Z,31.79
2022-08-17T18:00:39.591Z,31.73
2022-08-17T18:03:26.402Z,31.68
2022-08-17T18:06:28.281Z,31.60
2022-08-17T18:09:12.063Z,31.59
2022-08-17T18:12:15.522Z,31.49
2022-08-17T18:15:21.550Z,31.39
2022-08-17T18:18:37.866Z,31.28
2022-08-17T18:21:19.274Z,31.28
2022-08-17T18:24:00.252Z,31.23
2022-08-17T18:26:49.322Z,31.17
2022-08-17T18:29:42.421Z,31.11
2022-08-17T18:32:36.377Z,31.03
2022-08-17T18:35:28.331Z,31.00
2022-08-17T18:38:20.077Z,30.99
2022-08-17T18:41:02.071Z,30.88
2022-08-17T18:43:44.147Z,30.86
2022-08-17T18:46:35.094Z,30.75
2022-08-17T18:49:07.630Z,30.71
2022-08-17T18:51:40.400Z,30.65
2022-08-17T18:54:19.716Z,30.58
2022-08-17T18:56:54.473Z,30.54
2022-08-17T18:59:41.255Z,30.46
2022-08-17T19:02:39.126Z,30.38
2022-08-17T19:05:30.867Z,30.28
2022-08-17T19:08:20.693Z,30.23
2022-08-17T19:10:53.275Z,30.23
2022-08-17T19:13:29.031Z,30.21
2022-08-17T19:16:15.775Z,30.14
2022-08-17T19:18:52.496Z,30.12
2022-08-17T19:21:30.458Z,30.10
2022-08-17T19:24:07.897Z,30.05
2022-08-17T19:26:54.224Z,30.01
2022-08-17T19:29:31.189Z,29.97
2022-08-17T19:32:00.539Z,29.95
2022-08-17T19:34:34.770Z,29.90
2022-08-17T19:37:12.607Z,29.81
2022-08-17T19:40:06.749Z,29.66
2022-08-17T19:42:51.372Z,29.60
2022-08-17T19:45:36.692Z,29.48
2022-08-17T19:48:25.054Z,29.40
2022-08-17T19:51:04.468Z,29.34
2022-08-17T19:54:04.303Z,29.27
2022-08-17T19:56:43.558Z,29.18
2022-08-17T19:59:24.024Z,29.12
2022-08-17T20:02:01.129Z,29.06
2022-08-17T20:04:41.177Z,28.97
2022-08-17T20:07:18.544Z,28.91
2022-08-17T20:09:52.891Z,28.90
2022-08-17T20:12:27.556Z,28.85
2022-08-17T20:15:03.422Z,28.80
2022-08-17T20:17:37.276Z,28.76
2022-08-17T20:20:20.425Z,28.69
2022-08-17T20:22:58.935Z,28.66
2022-08-17T20:25:38.373Z,28.66
2022-08-17T20:28:22.455Z,28.65
2022-08-17T20:30:51.183Z,28.71
2022-08-17T20:33:29.545Z,28.72
2022-08-17T20:36:18.644Z,28.71
2022-08-17T20:38:51.415Z,28.75
2022-08-17T20:41:21.016Z,28.76
2022-08-17T20:44:03.737Z,28.73
2022-08-17T20:47:01.152Z,28.73
2022-08-17T20:49:50.769Z,28.71
2022-08-17T20:52:49.604Z,28.68
2022-08-17T20:55:53.304Z,28.67
2022-08-17T20:58:56.556Z,28.63
2022-08-17T21:01:39.568Z,28.65
2022-08-17T21:04:28.757Z,28.67
2022-08-17T21:07:29.163Z,28.61
2022-08-17T21:10:13.875Z,28.57
2022-08-17T21:12:48.337Z,28.56
2022-08-17T21:15:34.929Z,28.52
2022-08-17T21:18:16.467Z,28.51
2022-08-17T21:21:17.411Z,28.45
2022-08-17T21:24:26.267Z,28.38
2022-08-17T21:27:08.326Z,28.40
2022-08-17T21:30:12.666Z,28.37
2022-08-17T21:32:43.500Z,28.41
2022-08-17T21:35:47.224Z,28.32
2022-08-17T21:38:19.436Z,28.29
2022-08-17T21:40:52.678Z,28.24
2022-08-17T21:43:29.365Z,28.14
2022-08-17T21:46:04.323Z,28.10
2022-08-17T21:48:42.100Z,28.09
2022-08-17T21:51:18.039Z,28.10
2022-08-17T21:53:50.044Z,28.13
2022-08-17T21:56:26.194Z,28.09
2022-08-17T21:59:01.200Z,28.04
2022-08-17T22:01:34.630Z,28.01
2022-08-17T22:04:17.923Z,28.00
2022-08-17T22:06:52.419Z,28.00
2022-08-17T22:09:29.681Z,28.00
2022-08-17T22:12:07.874Z,28.02
2022-08-17T22:14:52.326Z,28.03
2022-08-17T22:17:26.493Z,27.99
2022-08-17T22:19:59.011Z,27.94
2022-08-17T22:22:32.577Z,27.88
2022-08-17T22:25:06.501Z,27.84
2022-08-17T22:27:55.448Z,27.79
2022-08-17T22:30:35.170Z,27.76
2022-08-17T22:33:40.329Z,27.70
2022-08-17T22:36:29.207Z,27.72
2022-08-17T22:38:59.518Z,27.75
2022-08-17T22:41:40.694Z,27.71
2022-08-17T22:44:23.261Z,27.68
2022-08-17T22:47:03.332Z,27.67
2022-08-17T22:49:38.906Z,27.69
2022-08-17T22:52:33.354Z,27.66
2022-08-17T22:55:30.786Z,27.67
2022-08-17T22:58:17.341Z,27.65
2022-08-17T23:00:48.180Z,27.61
2022-08-17T23:03:19.755Z,27.60
2022-08-17T23:06:03.757Z,27.57
2022-08-17T23:08:33.639Z,27.59
2022-08-17T23:11:01.137Z,27.61
2022-08-17T23:13:28.802Z,27.63
2022-08-17T23:15:56.130Z,27.63
2022-08-17T23:18:23.547Z,27.61
2022-08-17T23:20:52.293Z,27.57
2022-08-17T23:23:23.593Z,27.56
2022-08-17T23:25:51.276Z,27.57
2022-08-17T23:28:18.649Z,27.59
2022-08-17T23:30:48.413Z,27.57
2022-08-17T23:33:21.355Z,27.56
2022-08-17T23:35:48.705Z,27.56
2022-08-17T23:38:17.501Z,27.54
2022-08-17T23:40:44.982Z,27.53
2022-08-17T23:43:25.402Z,27.52
2022-08-17T23:45:59.460Z,27.51
2022-08-17T23:48:35.378Z,27.54
2022-08-17T23:51:09.111Z,27.53
2022-08-17T23:53:44.739Z,27.50
2022-08-17T23:56:12.417Z,27.53
2022-08-17T23:58:43.419Z,27.56
